sensor_id;sensor_type;location;lat;lon;timestamp;P1;durP1;ratioP1;P2;durP2;ratioP2
1677;SDS011;6034;46.864;15.216;2023-06-01T05:00:21;7.45;;;6.60;;
1677;SDS011;6034;46.864;15.216;2023-06-01T05:02:49;9.00;;;7.93;;
1677;SDS011;6034;46.864;15.216;2023-06-01T05:05:16;9.13;;;8.10;;
1677;SDS011;6034;46.864;15.216;2023-06-01T05:07:44;9.13;;;7.77;;
1677;SDS011;6034;46.864;15.216;2023-06-01T05:10:11;10.13;;;7.70;;
1677;SDS011;6034;46.864;15.216;2023-06-01T05:12:39;8.90;;;8.00;;
1677;SDS011;6034;46.864;15.216;2023-06-01T05:15:07;12.00;;;8.87;;
1677;SDS011;6034;46.864;15.216;2023-06-01T05:17:38;7.77;;;7.07;;
1677;SDS011;6034;46.864;15.216;2023-06-01T05:20:07;7.87;;;7.17;;
1677;SDS011;6034;46.864;15.216;2023-06-01T05:22:36;10.50;;;7.90;;
1677;SDS011;6034;46.864;15.216;2023-06-01T05:25:03;10.67;;;8.10;;
1677;SDS011;6034;46.864;15.216;2023-06-01T05:27:32;8.70;;;7.80;;
1677;SDS011;6034;46.864;15.216;2023-06-01T05:30:00;9.43;;;8.40;;
1677;SDS011;6034;46.864;15.216;2023-06-01T05:32:27;9.60;;;8.30;;
1677;SDS011;6034;46.864;15.216;2023-06-01T05:34:56;10.73;;;8.60;;
1677;SDS011;6034;46.864;15.216;2023-06-01T05:37:24;9.07;;;8.17;;
1677;SDS011;6034;46.864;15.216;2023-06-01T05:39:51;9.33;;;8.33;;
1677;SDS011;6034;46.864;15.216;2023-06-01T05:42:18;12.73;;;9.60;;
1677;SDS011;6034;46.864;15.216;2023-06-01T05:44:45;9.00;;;7.77;;
1677;SDS011;6034;46.864;15.216;2023-06-01T05:47:13;9.67;;;8.67;;
1677;SDS011;6034;46.864;15.216;2023-06-01T05:49:40;9.47;;;8.57;;
1677;SDS011;6034;46.864;15.216;2023-06-01T05:52:09;10.50;;;9.40;;
1677;SDS011;6034;46.864;15.216;2023-06-01T05:54:38;9.40;;;8.23;;
1677;SDS011;6034;46.864;15.216;2023-06-01T05:57:06;13.33;;;8.07;;
1677;SDS011;6034;46.864;15.216;2023-06-01T05:59:33;9.03;;;7.60;;
1677;SDS011;6034;46.864;15.216;2023-06-01T06:02:00;8.53;;;7.73;;
1677;SDS011;6034;46.864;15.216;2023-06-01T06:04:27;8.83;;;7.13;;
1677;SDS011;6034;46.864;15.216;2023-06-01T06:06:55;8.30;;;7.43;;
1677;SDS011;6034;46.864;15.216;2023-06-01T06:09:24;8.77;;;7.70;;
1677;SDS011;6034;46.864;15.216;2023-06-01T06:11:51;13.20;;;7.80;;
1677;SDS011;6034;46.864;15.216;2023-06-01T06:14:19;11.73;;;7.97;;
1677;SDS011;6034;46.864;15.216;2023-06-01T06:16:46;10.87;;;7.90;;
1677;SDS011;6034;46.864;15.216;2023-06-01T06:19:14;7.47;;;6.80;;
1677;SDS011;6034;46.864;15.216;2023-06-01T06:21:42;8.17;;;7.37;;
1677;SDS011;6034;46.864;15.216;2023-06-01T06:24:10;7.37;;;6.67;;
1677;SDS011;6034;46.864;15.216;2023-06-01T06:26:39;7.63;;;6.83;;
1677;SDS011;6034;46.864;15.216;2023-06-01T06:29:06;7.87;;;7.03;;
1677;SDS011;6034;46.864;15.216;2023-06-01T06:31:34;7.30;;;6.60;;
1677;SDS011;6034;46.864;15.216;2023-06-01T06:34:01;7.30;;;6.60;;
1677;SDS011;6034;46.864;15.216;2023-06-01T06:36:29;7.70;;;7.00;;
1677;SDS011;6034;46.864;15.216;2023-06-01T06:38:56;7.80;;;6.87;;
1677;SDS011;6034;46.864;15.216;2023-06-01T06:41:25;7.23;;;6.53;;
1677;SDS011;6034;46.864;15.216;2023-06-01T06:43:54;8.90;;;6.90;;
1677;SDS011;6034;46.864;15.216;2023-06-01T06:46:22;7.27;;;6.57;;
1677;SDS011;6034;46.864;15.216;2023-06-01T06:48:50;8.03;;;7.20;;
1677;SDS011;6034;46.864;15.216;2023-06-01T06:51:17;12.00;;;7.07;;
1677;SDS011;6034;46.864;15.216;2023-06-01T06:53:46;8.83;;;7.33;;
1677;SDS011;6034;46.864;15.216;2023-06-01T06:56:14;10.33;;;7.93;;
1677;SDS011;6034;46.864;15.216;2023-06-01T06:58:41;10.33;;;6.57;;
1677;SDS011;6034;46.864;15.216;2023-06-01T07:01:10;8.83;;;6.77;;
1677;SDS011;6034;46.864;15.216;2023-06-01T07:03:38;7.97;;;7.20;;
1677;SDS011;6034;46.864;15.216;2023-06-01T07:06:05;9.27;;;6.60;;
1677;SDS011;6034;46.864;15.216;2023-06-01T07:08:33;11.13;;;6.60;;
1677;SDS011;6034;46.864;15.216;2023-06-01T07:11:01;11.60;;;6.40;;
1677;SDS011;6034;46.864;15.216;2023-06-01T07:13:29;12.80;;;6.87;;
1677;SDS011;6034;46.864;15.216;2023-06-01T07:15:56;6.73;;;5.20;;
1677;SDS011;6034;46.864;15.216;2023-06-01T07:18:25;8.00;;;6.00;;
1677;SDS011;6034;46.864;15.216;2023-06-01T07:20:52;7.00;;;5.67;;
1677;SDS011;6034;46.864;15.216;2023-06-01T07:23:20;8.57;;;6.67;;
1677;SDS011;6034;46.864;15.216;2023-06-01T07:25:48;7.17;;;6.50;;
1677;SDS011;6034;46.864;15.216;2023-06-01T07:28:16;8.77;;;6.73;;
1677;SDS011;6034;46.864;15.216;2023-06-01T07:30:43;13.03;;;6.90;;
1677;SDS011;6034;46.864;15.216;2023-06-01T07:33:11;9.10;;;7.90;;
1677;SDS011;6034;46.864;15.216;2023-06-01T07:35:40;9.50;;;7.77;;
1677;SDS011;6034;46.864;15.216;2023-06-01T07:38:08;10.33;;;7.70;;
1677;SDS011;6034;46.864;15.216;2023-06-01T07:40:36;8.27;;;7.37;;
1677;SDS011;6034;46.864;15.216;2023-06-01T07:43:04;8.60;;;7.10;;
1677;SDS011;6034;46.864;15.216;2023-06-01T07:45:31;13.20;;;7.17;;
1677;SDS011;6034;46.864;15.216;2023-06-01T07:47:59;7.33;;;6.50;;
1677;SDS011;6034;46.864;15.216;2023-06-01T07:50:27;7.93;;;7.00;;
1677;SDS011;6034;46.864;15.216;2023-06-01T07:52:57;11.03;;;6.83;;
1677;SDS011;6034;46.864;15.216;2023-06-01T07:55:25;7.80;;;6.37;;
1677;SDS011;6034;46.864;15.216;2023-06-01T07:57:53;15.57;;;7.57;;
1677;SDS011;6034;46.864;15.216;2023-06-01T08:00:21;9.40;;;6.60;;
1677;SDS011;6034;46.864;15.216;2023-06-01T08:02:50;6.50;;;5.90;;
1677;SDS011;6034;46.864;15.216;2023-06-01T08:05:17;7.00;;;5.57;;
1677;SDS011;6034;46.864;15.216;2023-06-01T08:07:45;7.60;;;6.17;;
1677;SDS011;6034;46.864;15.216;2023-06-01T08:10:15;6.70;;;6.07;;
1677;SDS011;6034;46.864;15.216;2023-06-01T08:12:43;11.37;;;6.33;;
1677;SDS011;6034;46.864;15.216;2023-06-01T08:15:13;6.13;;;5.53;;
1677;SDS011;6034;46.864;15.216;2023-06-01T08:17:41;6.40;;;5.17;;
1677;SDS011;6034;46.864;15.216;2023-06-01T08:20:08;9.20;;;5.80;;
1677;SDS011;6034;46.864;15.216;2023-06-01T08:22:37;6.23;;;5.30;;
1677;SDS011;6034;46.864;15.216;2023-06-01T08:25:06;7.93;;;5.57;;
1677;SDS011;6034;46.864;15.216;2023-06-01T08:27:35;9.17;;;5.70;;
1677;SDS011;6034;46.864;15.216;2023-06-01T08:30:02;6.57;;;6.00;;
1677;SDS011;6034;46.864;15.216;2023-06-01T08:32:30;8.40;;;6.00;;
1677;SDS011;6034;46.864;15.216;2023-06-01T08:34:58;8.47;;;6.40;;
1677;SDS011;6034;46.864;15.216;2023-06-01T08:37:25;6.53;;;5.83;;
1677;SDS011;6034;46.864;15.216;2023-06-01T08:39:53;7.33;;;6.40;;
1677;SDS011;6034;46.864;15.216;2023-06-01T08:42:23;6.87;;;6.17;;
1677;SDS011;6034;46.864;15.216;2023-06-01T08:44:54;7.97;;;7.27;;
1677;SDS011;6034;46.864;15.216;2023-06-01T08:47:22;8.10;;;6.77;;
1677;SDS011;6034;46.864;15.216;2023-06-01T08:49:51;8.47;;;6.40;;
1677;SDS011;6034;46.864;15.216;2023-06-01T08:52:20;7.53;;;6.10;;
1677;SDS011;6034;46.864;15.216;2023-06-01T08:54:49;7.10;;;6.30;;
1677;SDS011;6034;46.864;15.216;2023-06-01T08:57:17;9.83;;;6.13;;
1677;SDS011;6034;46.864;15.216;2023-06-01T08:59:45;5.90;;;5.30;;
1677;SDS011;6034;46.864;15.216;2023-06-01T09:02:14;6.10;;;5.60;;
1677;SDS011;6034;46.864;15.216;2023-06-01T09:04:42;7.03;;;5.30;;
1677;SDS011;6034;46.864;15.216;2023-06-01T09:07:10;5.53;;;4.90;;
1677;SDS011;6034;46.864;15.216;2023-06-01T09:09:38;6.27;;;5.63;;
1677;SDS011;6034;46.864;15.216;2023-06-01T09:12:19;6.70;;;5.33;;
1677;SDS011;6034;46.864;15.216;2023-06-01T09:14:47;7.50;;;5.20;;
1677;SDS011;6034;46.864;15.216;2023-06-01T09:17:20;7.00;;;5.83;;
1677;SDS011;6034;46.864;15.216;2023-06-01T09:19:49;8.43;;;6.37;;
1677;SDS011;6034;46.864;15.216;2023-06-01T09:22:17;9.70;;;5.70;;
1677;SDS011;6034;46.864;15.216;2023-06-01T09:24:54;7.27;;;6.30;;
1677;SDS011;6034;46.864;15.216;2023-06-01T09:27:23;9.40;;;5.90;;
1677;SDS011;6034;46.864;15.216;2023-06-01T09:29:53;8.90;;;6.30;;
1677;SDS011;6034;46.864;15.216;2023-06-01T09:32:24;6.67;;;5.97;;
1677;SDS011;6034;46.864;15.216;2023-06-01T09:34:52;9.30;;;5.93;;
1677;SDS011;6034;46.864;15.216;2023-06-01T09:37:20;8.10;;;6.33;;
1677;SDS011;6034;46.864;15.216;2023-06-01T09:39:47;7.43;;;5.73;;
1677;SDS011;6034;46.864;15.216;2023-06-01T09:42:15;7.73;;;6.97;;
1677;SDS011;6034;46.864;15.216;2023-06-01T09:44:42;7.00;;;6.40;;
1677;SDS011;6034;46.864;15.216;2023-06-01T09:47:10;7.80;;;6.13;;
1677;SDS011;6034;46.864;15.216;2023-06-01T09:49:40;7.23;;;6.00;;
1677;SDS011;6034;46.864;15.216;2023-06-01T09:52:10;6.87;;;6.20;;
1677;SDS011;6034;46.864;15.216;2023-06-01T09:54:40;8.37;;;7.20;;
1677;SDS011;6034;46.864;15.216;2023-06-01T09:57:09;9.00;;;6.90;;
1677;SDS011;6034;46.864;15.216;2023-06-01T09:59:38;7.40;;;6.67;;
1677;SDS011;6034;46.864;15.216;2023-06-01T10:02:07;7.93;;;6.60;;
1677;SDS011;6034;46.864;15.216;2023-06-01T10:04:39;7.53;;;6.23;;
1677;SDS011;6034;46.864;15.216;2023-06-01T10:07:09;7.53;;;5.87;;
1677;SDS011;6034;46.864;15.216;2023-06-01T10:09:38;6.77;;;6.17;;
1677;SDS011;6034;46.864;15.216;2023-06-01T10:12:08;6.90;;;5.67;;
1677;SDS011;6034;46.864;15.216;2023-06-01T10:14:35;7.70;;;6.70;;
1677;SDS011;6034;46.864;15.216;2023-06-01T10:17:04;7.83;;;6.90;;
1677;SDS011;6034;46.864;15.216;2023-06-01T10:19:32;7.70;;;5.80;;
1677;SDS011;6034;46.864;15.216;2023-06-01T10:22:04;6.60;;;5.70;;
1677;SDS011;6034;46.864;15.216;2023-06-01T10:24:32;9.70;;;6.30;;
1677;SDS011;6034;46.864;15.216;2023-06-01T10:27:03;10.40;;;6.67;;
1677;SDS011;6034;46.864;15.216;2023-06-01T10:29:36;10.83;;;6.40;;
1677;SDS011;6034;46.864;15.216;2023-06-01T10:32:04;7.53;;;6.33;;
1677;SDS011;6034;46.864;15.216;2023-06-01T10:34:52;7.20;;;5.53;;
1677;SDS011;6034;46.864;15.216;2023-06-01T10:37:20;7.77;;;6.97;;
1677;SDS011;6034;46.864;15.216;2023-06-01T10:39:48;11.77;;;6.80;;
1677;SDS011;6034;46.864;15.216;2023-06-01T10:42:35;8.73;;;6.13;;
1677;SDS011;6034;46.864;15.216;2023-06-01T10:45:05;10.60;;;6.30;;
1677;SDS011;6034;46.864;15.216;2023-06-01T10:47:46;9.63;;;6.50;;
1677;SDS011;6034;46.864;15.216;2023-06-01T10:50:17;7.07;;;6.37;;
1677;SDS011;6034;46.864;15.216;2023-06-01T10:52:46;7.17;;;6.20;;
1677;SDS011;6034;46.864;15.216;2023-06-01T10:55:20;7.57;;;6.20;;
1677;SDS011;6034;46.864;15.216;2023-06-01T10:57:49;5.83;;;4.90;;
1677;SDS011;6034;46.864;15.216;2023-06-01T11:00:18;7.60;;;5.70;;
1677;SDS011;6034;46.864;15.216;2023-06-01T11:02:48;6.07;;;5.47;;
1677;SDS011;6034;46.864;15.216;2023-06-01T11:05:37;6.10;;;5.37;;
1677;SDS011;6034;46.864;15.216;2023-06-01T11:08:07;8.33;;;5.20;;
1677;SDS011;6034;46.864;15.216;2023-06-01T11:10:54;6.90;;;6.20;;
1677;SDS011;6034;46.864;15.216;2023-06-01T11:13:26;7.33;;;5.63;;
1677;SDS011;6034;46.864;15.216;2023-06-01T11:18:57;7.73;;;5.23;;
1677;SDS011;6034;46.864;15.216;2023-06-01T11:21:26;8.43;;;5.70;;
1677;SDS011;6034;46.864;15.216;2023-06-01T11:23:57;8.07;;;6.17;;
1677;SDS011;6034;46.864;15.216;2023-06-01T11:26:28;11.63;;;6.10;;
1677;SDS011;6034;46.864;15.216;2023-06-01T11:29:04;5.27;;;4.77;;
1677;SDS011;6034;46.864;15.216;2023-06-01T11:31:34;9.73;;;6.40;;
1677;SDS011;6034;46.864;15.216;2023-06-01T11:34:02;6.20;;;5.60;;
1677;SDS011;6034;46.864;15.216;2023-06-01T11:36:35;11.00;;;5.87;;
1677;SDS011;6034;46.864;15.216;2023-06-01T11:39:05;7.07;;;6.00;;
1677;SDS011;6034;46.864;15.216;2023-06-01T11:41:42;5.93;;;5.33;;
1677;SDS011;6034;46.864;15.216;2023-06-01T11:44:09;5.60;;;5.10;;
1677;SDS011;6034;46.864;15.216;2023-06-01T11:46:37;10.97;;;5.70;;
1677;SDS011;6034;46.864;15.216;2023-06-01T11:49:04;7.50;;;5.93;;
1677;SDS011;6034;46.864;15.216;2023-06-01T11:51:36;8.80;;;6.40;;
1677;SDS011;6034;46.864;15.216;2023-06-01T11:54:06;7.67;;;5.73;;
1677;SDS011;6034;46.864;15.216;2023-06-01T11:56:34;9.80;;;5.53;;
1677;SDS011;6034;46.864;15.216;2023-06-01T11:59:04;6.07;;;5.30;;
1677;SDS011;6034;46.864;15.216;2023-06-01T12:01:33;7.93;;;5.93;;
1677;SDS011;6034;46.864;15.216;2023-06-01T12:04:02;8.50;;;6.57;;
1677;SDS011;6034;46.864;15.216;2023-06-01T12:06:32;6.40;;;5.80;;
1677;SDS011;6034;46.864;15.216;2023-06-01T12:09:01;9.67;;;6.80;;
1677;SDS011;6034;46.864;15.216;2023-06-01T12:11:30;8.07;;;6.07;;
1677;SDS011;6034;46.864;15.216;2023-06-01T12:14:00;8.40;;;6.17;;
1677;SDS011;6034;46.864;15.216;2023-06-01T12:19:19;7.33;;;6.60;;
1677;SDS011;6034;46.864;15.216;2023-06-01T12:21:47;7.60;;;5.60;;
1677;SDS011;6034;46.864;15.216;2023-06-01T12:24:17;6.50;;;5.40;;
1677;SDS011;6034;46.864;15.216;2023-06-01T12:26:46;7.83;;;6.80;;
1677;SDS011;6034;46.864;15.216;2023-06-01T12:29:13;8.00;;;6.07;;
1677;SDS011;6034;46.864;15.216;2023-06-01T12:31:51;6.57;;;5.97;;
1677;SDS011;6034;46.864;15.216;2023-06-01T12:34:20;14.50;;;6.80;;
1677;SDS011;6034;46.864;15.216;2023-06-01T12:36:47;7.80;;;5.47;;
1677;SDS011;6034;46.864;15.216;2023-06-01T12:39:14;6.00;;;5.40;;
1677;SDS011;6034;46.864;15.216;2023-06-01T12:41:49;6.53;;;5.33;;
1677;SDS011;6034;46.864;15.216;2023-06-01T12:44:20;8.20;;;5.70;;
1677;SDS011;6034;46.864;15.216;2023-06-01T12:46:47;5.87;;;5.27;;
1677;SDS011;6034;46.864;15.216;2023-06-01T12:49:24;10.77;;;6.57;;
1677;SDS011;6034;46.864;15.216;2023-06-01T12:51:51;9.37;;;6.20;;
1677;SDS011;6034;46.864;15.216;2023-06-01T12:54:19;6.80;;;5.80;;
1677;SDS011;6034;46.864;15.216;2023-06-01T12:56:47;7.40;;;5.23;;
1677;SDS011;6034;46.864;15.216;2023-06-01T12:59:17;7.47;;;5.97;;
1677;SDS011;6034;46.864;15.216;2023-06-01T13:01:44;8.33;;;5.70;;
1677;SDS011;6034;46.864;15.216;2023-06-01T13:04:11;8.10;;;5.70;;
1677;SDS011;6034;46.864;15.216;2023-06-01T13:06:39;8.90;;;5.30;;
1677;SDS011;6034;46.864;15.216;2023-06-01T13:09:06;9.87;;;6.30;;
1677;SDS011;6034;46.864;15.216;2023-06-01T13:11:34;7.80;;;6.17;;
1677;SDS011;6034;46.864;15.216;2023-06-01T13:14:04;7.37;;;6.67;;
1677;SDS011;6034;46.864;15.216;2023-06-01T13:16:32;7.97;;;6.53;;
1677;SDS011;6034;46.864;15.216;2023-06-01T13:18:59;9.43;;;5.83;;
1677;SDS011;6034;46.864;15.216;2023-06-01T13:21:27;7.47;;;6.03;;
1677;SDS011;6034;46.864;15.216;2023-06-01T13:23:54;6.30;;;5.60;;
1677;SDS011;6034;46.864;15.216;2023-06-01T13:26:21;9.10;;;6.07;;
1677;SDS011;6034;46.864;15.216;2023-06-01T13:28:50;6.50;;;5.90;;
1677;SDS011;6034;46.864;15.216;2023-06-01T13:31:19;7.80;;;5.70;;
1677;SDS011;6034;46.864;15.216;2023-06-01T13:33:46;8.27;;;6.37;;
1677;SDS011;6034;46.864;15.216;2023-06-01T13:36:13;8.47;;;5.53;;
1677;SDS011;6034;46.864;15.216;2023-06-01T13:38:41;6.30;;;5.70;;
1677;SDS011;6034;46.864;15.216;2023-06-01T13:41:08;7.70;;;6.10;;
1677;SDS011;6034;46.864;15.216;2023-06-01T13:43:35;7.10;;;5.60;;
1677;SDS011;6034;46.864;15.216;2023-06-01T13:46:05;6.40;;;5.80;;
1677;SDS011;6034;46.864;15.216;2023-06-01T13:48:36;7.50;;;6.47;;
1677;SDS011;6034;46.864;15.216;2023-06-01T13:51:03;6.33;;;5.77;;
1677;SDS011;6034;46.864;15.216;2023-06-01T13:53:31;6.50;;;5.50;;
1677;SDS011;6034;46.864;15.216;2023-06-01T13:55:58;7.43;;;5.60;;
1677;SDS011;6034;46.864;15.216;2023-06-01T13:58:26;8.90;;;6.20;;
1677;SDS011;6034;46.864;15.216;2023-06-01T14:00:54;8.87;;;6.53;;
1677;SDS011;6034;46.864;15.216;2023-06-01T14:03:23;6.37;;;5.40;;
1677;SDS011;6034;46.864;15.216;2023-06-01T14:05:51;7.60;;;5.80;;
1677;SDS011;6034;46.864;15.216;2023-06-01T14:08:18;7.63;;;5.30;;
1677;SDS011;6034;46.864;15.216;2023-06-01T14:10:46;5.90;;;5.27;;
1677;SDS011;6034;46.864;15.216;2023-06-01T14:13:13;6.90;;;5.50;;
1677;SDS011;6034;46.864;15.216;2023-06-01T14:15:40;8.10;;;7.40;;
1677;SDS011;6034;46.864;15.216;2023-06-01T14:18:07;7.73;;;5.43;;
1677;SDS011;6034;46.864;15.216;2023-06-01T14:20:35;10.17;;;6.70;;
1677;SDS011;6034;46.864;15.216;2023-06-01T14:23:04;12.53;;;6.20;;
1677;SDS011;6034;46.864;15.216;2023-06-01T14:25:34;9.07;;;7.27;;
1677;SDS011;6034;46.864;15.216;2023-06-01T14:28:01;10.53;;;6.70;;
1677;SDS011;6034;46.864;15.216;2023-06-01T14:30:29;5.80;;;5.27;;
1677;SDS011;6034;46.864;15.216;2023-06-01T14:32:56;6.53;;;5.90;;
1677;SDS011;6034;46.864;15.216;2023-06-01T14:35:23;8.33;;;6.53;;
1677;SDS011;6034;46.864;15.216;2023-06-01T14:37:51;9.70;;;5.50;;
1677;SDS011;6034;46.864;15.216;2023-06-01T14:40:22;7.10;;;6.40;;
1677;SDS011;6034;46.864;15.216;2023-06-01T14:42:49;6.43;;;5.83;;
1677;SDS011;6034;46.864;15.216;2023-06-01T14:45:16;8.57;;;6.63;;
1677;SDS011;6034;46.864;15.216;2023-06-01T14:47:46;8.50;;;5.90;;
1677;SDS011;6034;46.864;15.216;2023-06-01T14:50:14;5.70;;;5.17;;
1677;SDS011;6034;46.864;15.216;2023-06-01T14:52:41;7.27;;;5.27;;
1677;SDS011;6034;46.864;15.216;2023-06-01T14:55:08;6.83;;;5.40;;
1677;SDS011;6034;46.864;15.216;2023-06-01T14:57:37;8.00;;;5.60;;
1677;SDS011;6034;46.864;15.216;2023-06-01T15:00:06;6.70;;;5.40;;
1677;SDS011;6034;46.864;15.216;2023-06-01T15:02:35;7.80;;;6.07;;
1677;SDS011;6034;46.864;15.216;2023-06-01T15:05:03;6.57;;;5.83;;
1677;SDS011;6034;46.864;15.216;2023-06-01T15:07:31;6.87;;;5.73;;
1677;SDS011;6034;46.864;15.216;2023-06-01T15:09:58;8.33;;;6.03;;
1677;SDS011;6034;46.864;15.216;2023-06-01T15:12:25;8.93;;;5.97;;
1677;SDS011;6034;46.864;15.216;2023-06-01T15:14:54;9.00;;;6.73;;
1677;SDS011;6034;46.864;15.216;2023-06-01T15:17:22;7.87;;;6.07;;
1677;SDS011;6034;46.864;15.216;2023-06-01T15:20:10;7.40;;;5.67;;
1677;SDS011;6034;46.864;15.216;2023-06-01T15:22:37;6.10;;;5.50;;
1677;SDS011;6034;46.864;15.216;2023-06-01T15:25:05;8.20;;;5.70;;
1677;SDS011;6034;46.864;15.216;2023-06-01T15:27:33;6.10;;;5.37;;
1677;SDS011;6034;46.864;15.216;2023-06-01T15:30:03;8.77;;;6.17;;
1677;SDS011;6034;46.864;15.216;2023-06-01T15:32:31;6.80;;;5.97;;
1677;SDS011;6034;46.864;15.216;2023-06-01T15:34:58;7.73;;;5.70;;
1677;SDS011;6034;46.864;15.216;2023-06-01T15:37:27;6.10;;;5.33;;
1677;SDS011;6034;46.864;15.216;2023-06-01T15:39:56;8.70;;;6.40;;
1677;SDS011;6034;46.864;15.216;2023-06-01T15:42:24;8.30;;;6.00;;
1677;SDS011;6034;46.864;15.216;2023-06-01T15:44:51;7.73;;;5.73;;
1677;SDS011;6034;46.864;15.216;2023-06-01T15:47:19;8.70;;;6.77;;
1677;SDS011;6034;46.864;15.216;2023-06-01T15:49:47;6.97;;;5.77;;
1677;SDS011;6034;46.864;15.216;2023-06-01T15:52:14;7.77;;;6.13;;
1677;SDS011;6034;46.864;15.216;2023-06-01T15:54:41;6.77;;;6.07;;
1677;SDS011;6034;46.864;15.216;2023-06-01T15:57:08;5.90;;;5.30;;
1677;SDS011;6034;46.864;15.216;2023-06-01T15:59:36;7.00;;;5.83;;
1677;SDS011;6034;46.864;15.216;2023-06-01T16:02:03;7.17;;;6.27;;
1677;SDS011;6034;46.864;15.216;2023-06-01T16:04:32;7.90;;;6.47;;
1677;SDS011;6034;46.864;15.216;2023-06-01T16:07:00;7.63;;;6.83;;
1677;SDS011;6034;46.864;15.216;2023-06-01T16:09:28;6.90;;;6.20;;
1677;SDS011;6034;46.864;15.216;2023-06-01T16:11:55;6.83;;;5.90;;
1677;SDS011;6034;46.864;15.216;2023-06-01T16:14:23;8.13;;;6.53;;
1677;SDS011;6034;46.864;15.216;2023-06-01T16:16:50;9.53;;;6.17;;
1677;SDS011;6034;46.864;15.216;2023-06-01T16:19:17;6.07;;;5.47;;
1677;SDS011;6034;46.864;15.216;2023-06-01T16:21:46;5.37;;;4.83;;
1677;SDS011;6034;46.864;15.216;2023-06-01T16:24:15;6.57;;;5.97;;
1677;SDS011;6034;46.864;15.216;2023-06-01T16:26:42;5.90;;;5.30;;
1677;SDS011;6034;46.864;15.216;2023-06-01T16:29:10;6.87;;;5.77;;
1677;SDS011;6034;46.864;15.216;2023-06-01T16:31:37;6.47;;;5.87;;
1677;SDS011;6034;46.864;15.216;2023-06-01T16:34:05;6.90;;;5.67;;
1677;SDS011;6034;46.864;15.216;2023-06-01T16:36:33;8.77;;;7.03;;
1677;SDS011;6034;46.864;15.216;2023-06-01T16:39:03;8.10;;;6.80;;
1677;SDS011;6034;46.864;15.216;2023-06-01T16:41:32;7.23;;;5.90;;
1677;SDS011;6034;46.864;15.216;2023-06-01T16:43:59;8.67;;;6.80;;
1677;SDS011;6034;46.864;15.216;2023-06-01T16:46:26;6.83;;;6.13;;
1677;SDS011;6034;46.864;15.216;2023-06-01T16:48:54;6.90;;;6.30;;
1677;SDS011;6034;46.864;15.216;2023-06-01T16:51:21;7.30;;;5.70;;
1677;SDS011;6034;46.864;15.216;2023-06-01T16:53:48;6.67;;;5.97;;
1677;SDS011;6034;46.864;15.216;2023-06-01T16:56:18;7.60;;;6.10;;
1677;SDS011;6034;46.864;15.216;2023-06-01T16:58:45;9.17;;;5.87;;
1677;SDS011;6034;46.864;15.216;2023-06-01T17:01:13;7.13;;;5.70;;
1677;SDS011;6034;46.864;15.216;2023-06-01T17:03:40;7.07;;;6.47;;
1677;SDS011;6034;46.864;15.216;2023-06-01T17:06:07;7.80;;;6.00;;
1677;SDS011;6034;46.864;15.216;2023-06-01T17:08:35;6.20;;;5.60;;
1677;SDS011;6034;46.864;15.216;2023-06-01T17:11:02;11.10;;;6.30;;
1677;SDS011;6034;46.864;15.216;2023-06-01T17:13:31;6.80;;;5.60;;
1677;SDS011;6034;46.864;15.216;2023-06-01T17:16:01;5.73;;;5.13;;
1677;SDS011;6034;46.864;15.216;2023-06-01T17:18:31;6.77;;;6.07;;
1677;SDS011;6034;46.864;15.216;2023-06-01T17:20:58;8.33;;;6.20;;
1677;SDS011;6034;46.864;15.216;2023-06-01T17:23:26;6.80;;;5.27;;
1677;SDS011;6034;46.864;15.216;2023-06-01T17:25:54;8.40;;;5.80;;
1677;SDS011;6034;46.864;15.216;2023-06-01T17:28:21;6.33;;;5.73;;
1677;SDS011;6034;46.864;15.216;2023-06-01T17:30:50;5.73;;;5.20;;
1677;SDS011;6034;46.864;15.216;2023-06-01T17:33:17;7.70;;;6.00;;
1677;SDS011;6034;46.864;15.216;2023-06-01T17:35:45;6.70;;;5.87;;
1677;SDS011;6034;46.864;15.216;2023-06-01T17:38:12;7.13;;;6.10;;
1677;SDS011;6034;46.864;15.216;2023-06-01T17:40:40;6.17;;;5.63;;
1677;SDS011;6034;46.864;15.216;2023-06-01T17:43:08;7.60;;;6.50;;
1677;SDS011;6034;46.864;15.216;2023-06-01T17:45:38;7.33;;;6.63;;
1677;SDS011;6034;46.864;15.216;2023-06-01T17:48:07;6.70;;;6.10;;
1677;SDS011;6034;46.864;15.216;2023-06-01T17:50:35;7.17;;;6.47;;
1677;SDS011;6034;46.864;15.216;2023-06-01T17:53:03;7.27;;;6.57;;
1677;SDS011;6034;46.864;15.216;2023-06-01T17:55:31;6.93;;;6.23;;
1677;SDS011;6034;46.864;15.216;2023-06-01T17:57:58;9.23;;;6.17;;
1677;SDS011;6034;46.864;15.216;2023-06-01T18:00:26;9.77;;;6.80;;
1677;SDS011;6034;46.864;15.216;2023-06-01T18:02:53;7.77;;;6.83;;
1677;SDS011;6034;46.864;15.216;2023-06-01T18:05:22;6.90;;;6.20;;
1677;SDS011;6034;46.864;15.216;2023-06-01T18:07:50;7.13;;;6.43;;
1677;SDS011;6034;46.864;15.216;2023-06-01T18:10:20;6.33;;;5.73;;
1677;SDS011;6034;46.864;15.216;2023-06-01T18:12:48;6.33;;;5.73;;
1677;SDS011;6034;46.864;15.216;2023-06-01T18:15:16;7.97;;;6.00;;
1677;SDS011;6034;46.864;15.216;2023-06-01T18:17:44;7.17;;;6.33;;
1677;SDS011;6034;46.864;15.216;2023-06-01T18:20:12;7.40;;;6.00;;
1677;SDS011;6034;46.864;15.216;2023-06-01T18:22:41;6.60;;;6.00;;
1677;SDS011;6034;46.864;15.216;2023-06-01T18:25:08;6.07;;;5.47;;
1677;SDS011;6034;46.864;15.216;2023-06-01T18:27:36;7.17;;;6.40;;
1677;SDS011;6034;46.864;15.216;2023-06-01T18:30:04;7.23;;;6.13;;
1677;SDS011;6034;46.864;15.216;2023-06-01T18:32:32;9.57;;;6.37;;
1677;SDS011;6034;46.864;15.216;2023-06-01T18:34:59;8.23;;;5.87;;
1677;SDS011;6034;46.864;15.216;2023-06-01T18:37:26;8.13;;;5.43;;
1677;SDS011;6034;46.864;15.216;2023-06-01T18:39:55;6.37;;;5.57;;
1677;SDS011;6034;46.864;15.216;2023-06-01T18:42:23;7.40;;;6.00;;
1677;SDS011;6034;46.864;15.216;2023-06-01T18:44:50;6.53;;;5.07;;
1677;SDS011;6034;46.864;15.216;2023-06-01T18:47:18;6.10;;;5.50;;
1677;SDS011;6034;46.864;15.216;2023-06-01T18:49:47;7.10;;;5.40;;
1677;SDS011;6034;46.864;15.216;2023-06-01T18:52:14;6.30;;;5.30;;
1677;SDS011;6034;46.864;15.216;2023-06-01T18:54:42;7.03;;;5.77;;
1677;SDS011;6034;46.864;15.216;2023-06-01T18:57:11;7.77;;;5.37;;
1677;SDS011;6034;46.864;15.216;2023-06-01T18:59:39;5.80;;;5.00;;
1677;SDS011;6034;46.864;15.216;2023-06-01T19:02:07;6.83;;;5.33;;
1677;SDS011;6034;46.864;15.216;2023-06-01T19:04:37;9.13;;;6.13;;
1677;SDS011;6034;46.864;15.216;2023-06-01T19:07:20;6.50;;;5.90;;
1677;SDS011;6034;46.864;15.216;2023-06-01T19:09:59;6.53;;;5.90;;
1677;SDS011;6034;46.864;15.216;2023-06-01T19:12:28;6.87;;;6.20;;
1677;SDS011;6034;46.864;15.216;2023-06-01T19:14:55;10.43;;;6.57;;
1677;SDS011;6034;46.864;15.216;2023-06-01T19:17:23;7.57;;;6.23;;
1677;SDS011;6034;46.864;15.216;2023-06-01T19:19:50;8.10;;;6.67;;
1677;SDS011;6034;46.864;15.216;2023-06-01T19:22:19;9.30;;;7.17;;
1677;SDS011;6034;46.864;15.216;2023-06-01T19:24:57;8.50;;;7.00;;
1677;SDS011;6034;46.864;15.216;2023-06-01T19:27:24;8.60;;;6.90;;
1677;SDS011;6034;46.864;15.216;2023-06-01T19:29:53;6.40;;;5.90;;
1677;SDS011;6034;46.864;15.216;2023-06-01T19:32:21;8.03;;;5.90;;
1677;SDS011;6034;46.864;15.216;2023-06-01T19:34:48;7.70;;;6.90;;
1677;SDS011;6034;46.864;15.216;2023-06-01T19:37:16;6.27;;;5.50;;
1677;SDS011;6034;46.864;15.216;2023-06-01T19:39:44;7.53;;;6.57;;
1677;SDS011;6034;46.864;15.216;2023-06-01T19:42:24;7.80;;;5.60;;
1677;SDS011;6034;46.864;15.216;2023-06-01T19:45:14;9.23;;;5.90;;
1677;SDS011;6034;46.864;15.216;2023-06-01T19:47:47;6.93;;;6.23;;
1677;SDS011;6034;46.864;15.216;2023-06-01T19:53:10;6.70;;;6.10;;
1677;SDS011;6034;46.864;15.216;2023-06-01T19:55:40;8.80;;;7.47;;
1677;SDS011;6034;46.864;15.216;2023-06-01T19:58:08;6.80;;;5.50;;
1677;SDS011;6034;46.864;15.216;2023-06-01T20:00:37;6.90;;;6.20;;
1677;SDS011;6034;46.864;15.216;2023-06-01T20:03:06;7.10;;;5.73;;
1677;SDS011;6034;46.864;15.216;2023-06-01T20:05:36;5.87;;;5.37;;
1677;SDS011;6034;46.864;15.216;2023-06-01T20:08:06;7.03;;;4.80;;
1677;SDS011;6034;46.864;15.216;2023-06-01T20:10:34;7.30;;;5.07;;
1677;SDS011;6034;46.864;15.216;2023-06-01T20:13:01;7.53;;;5.30;;
1677;SDS011;6034;46.864;15.216;2023-06-01T20:15:30;5.20;;;4.70;;
1677;SDS011;6034;46.864;15.216;2023-06-01T20:18:00;6.20;;;5.60;;